Time;durP1;ratioP1;P1;durP2;ratioP2;P2;SDS_P1;SDS_P2;PMS_P1;PMS_P2;Temp;Humidity;BMP_temperature;BMP_pressure;BME280_temperature;BME280_humidity;BME280_pressure;Samples;Min_cycle;Max_cycle;Signal;HPM_P1;HPM_P2
2022/07/27 00:03:01;;;;;;;0.45;0.20;;;;;;;11.37;100.00;102012.19;10458812;28;20057;-77
2022/07/27 00:08:02;;;;;;;0.38;0.20;;;;;;;11.24;100.00;102013.38;10477739;28;20552;-77
2022/07/27 00:13:05;;;;;;;0.28;0.10;;;;;;;11.27;100.00;102004.91;10493272;28;20072;-77
2022/07/27 00:18:07;;;;;;;0.00;0.00;;;;;;;11.28;100.00;102001.53;10492342;28;20048;-77
2022/07/27 00:23:09;;;;;;;0.10;0.10;;;;;;;11.29;100.00;102007.53;10532476;28;20093;-77
2022/07/27 00:28:10;;;;;;;0.00;0.00;;;;;;;11.37;100.00;102001.88;10491464;28;20051;-77
2022/07/27 00:33:12;;;;;;;0.08;0.08;;;;;;;11.27;100.00;102007.50;10509514;28;20051;-77
2022/07/27 00:38:17;;;;;;;0.00;0.00;;;;;;;11.29;100.00;102018.72;10511424;28;20076;-77
2022/07/27 00:43:19;;;;;;;0.20;0.20;;;;;;;11.22;100.00;102021.88;10498701;28;20087;-77
2022/07/27 00:48:21;;;;;;;0.00;0.00;;;;;;;11.24;100.00;102025.41;10507177;28;20036;-77
2022/07/27 00:53:25;;;;;;;0.08;0.08;;;;;;;11.25;100.00;102022.03;10500430;28;20040;-78
2022/07/27 00:58:28;;;;;;;0.00;0.00;;;;;;;11.17;100.00;102020.81;10500013;28;20041;-75
2022/07/27 01:03:29;;;;;;;0.10;0.10;;;;;;;11.15;100.00;102014.72;10502870;28;20041;-75
2022/07/27 01:08:31;;;;;;;0.40;0.22;;;;;;;11.11;100.00;102013.69;10496294;28;20460;-75
2022/07/27 01:13:34;;;;;;;0.10;0.10;;;;;;;10.99;100.00;102003.75;10501927;28;20047;-76
2022/07/27 01:18:38;;;;;;;0.00;0.00;;;;;;;10.89;100.00;102017.09;10501268;28;20053;-76
2022/07/27 01:23:40;;;;;;;0.00;0.00;;;;;;;10.78;100.00;102003.75;10502407;28;20376;-76
2022/07/27 01:28:42;;;;;;;0.10;0.10;;;;;;;10.70;100.00;102016.28;10502513;28;20048;-76
2022/07/27 01:33:44;;;;;;;0.00;0.00;;;;;;;10.62;100.00;102017.66;10494991;28;20048;-75
2022/07/27 01:38:45;;;;;;;0.00;0.00;;;;;;;10.62;100.00;102013.41;10503626;28;20051;-76
2022/07/27 01:43:47;;;;;;;0.00;0.00;;;;;;;10.63;100.00;102019.41;10497478;28;20492;-76
2022/07/27 01:49:14;;;;;;;0.20;0.00;;;;;;;10.77;100.00;102022.59;10504789;28;20106;-76
2022/07/27 01:54:17;;;;;;;0.03;0.03;;;;;;;10.90;100.00;102026.59;10502545;28;20040;-76
2022/07/27 01:59:18;;;;;;;0.10;0.10;;;;;;;10.89;100.00;102028.28;10497204;28;20411;-76
2022/07/27 02:04:32;;;;;;;0.08;0.08;;;;;;;10.98;100.00;102009.75;10495944;28;20048;-75
2022/07/27 02:09:34;;;;;;;0.10;0.08;;;;;;;10.85;100.00;102025.50;10485171;28;20048;-76
2022/07/27 02:14:35;;;;;;;0.20;0.10;;;;;;;10.79;100.00;102015.81;10496848;28;20040;-76
2022/07/27 02:19:38;;;;;;;0.00;0.00;;;;;;;10.81;100.00;102021.03;10486825;28;20397;-76
2022/07/27 02:24:40;;;;;;;0.10;0.10;;;;;;;10.89;100.00;102007.66;10472871;28;20412;-75
2022/07/27 02:29:41;;;;;;;0.10;0.10;;;;;;;10.83;100.00;102011.69;10489069;28;20040;-75
2022/07/27 02:34:43;;;;;;;0.10;0.10;;;;;;;10.85;100.00;102010.03;10488177;28;20102;-76
2022/07/27 02:39:45;;;;;;;0.10;0.10;;;;;;;11.09;100.00;102016.22;10498000;28;20045;-76
2022/07/27 02:44:46;;;;;;;0.00;0.00;;;;;;;11.11;100.00;102004.28;10466705;28;20507;-75
2022/07/27 02:49:48;;;;;;;0.20;0.10;;;;;;;11.15;100.00;102006.97;10493140;28;20080;-76
2022/07/27 02:54:50;;;;;;;0.10;0.10;;;;;;;11.26;100.00;101995.41;10489863;28;20518;-76
2022/07/27 02:59:51;;;;;;;0.70;0.10;;;;;;;11.34;100.00;101994.03;10489538;28;20048;-76
2022/07/27 03:04:53;;;;;;;0.28;0.20;;;;;;;11.45;100.00;101996.13;10483121;28;20040;-76
2022/07/27 03:09:54;;;;;;;0.10;0.10;;;;;;;11.45;100.00;101998.72;10489940;28;20052;-76
2022/07/27 03:14:56;;;;;;;0.45;0.35;;;;;;;11.53;100.00;102013.69;10489880;28;20498;-75
2022/07/27 03:19:57;;;;;;;0.20;0.20;;;;;;;11.55;100.00;102006.00;10490508;28;20091;-76
2022/07/27 03:25:00;;;;;;;0.30;0.20;;;;;;;11.58;100.00;102006.13;10490287;28;20048;-76
2022/07/27 03:30:02;;;;;;;0.00;0.00;;;;;;;11.62;100.00;102009.69;10482857;28;20053;-75
2022/07/27 03:35:04;;;;;;;0.10;0.10;;;;;;;11.66;100.00;102009.00;10482333;28;20043;-76
2022/07/27 03:40:06;;;;;;;0.00;0.00;;;;;;;11.61;100.00;102010.53;10491610;28;20044;-75
2022/07/27 03:45:08;;;;;;;0.43;0.05;;;;;;;11.75;100.00;102007.66;10501765;28;20044;-76
2022/07/27 03:50:11;;;;;;;0.00;0.00;;;;;;;11.67;100.00;102001.31;10504433;28;20043;-76
2022/07/27 03:55:12;;;;;;;0.08;0.08;;;;;;;11.64;100.00;102010.66;10482883;28;20041;-76
2022/07/27 04:00:14;;;;;;;0.15;0.15;;;;;;;11.72;100.00;102010.16;10478259;28;20044;-76
2022/07/27 04:05:16;;;;;;;0.00;0.00;;;;;;;11.77;100.00;102022.34;10503676;28;20045;-76
2022/07/27 04:10:18;;;;;;;0.00;0.00;;;;;;;11.80;100.00;102015.59;10485409;28;20059;-76
2022/07/27 04:15:20;;;;;;;0.00;0.00;;;;;;;12.02;100.00;102014.75;10483358;28;20048;-75
2022/07/27 04:20:21;;;;;;;0.43;0.10;;;;;;;11.94;100.00;102016.13;10503510;28;20052;-76
2022/07/27 04:25:23;;;;;;;0.43;0.20;;;;;;;12.06;100.00;102045.03;10499673;28;20039;-76
2022/07/27 04:30:25;;;;;;;1.02;0.57;;;;;;;12.39;100.00;102035.91;10499750;28;20060;-75
2022/07/27 04:35:27;;;;;;;0.05;0.03;;;;;;;12.61;100.00;102042.75;10506853;28;20047;-76
2022/07/27 04:40:32;;;;;;;2.05;0.70;;;;;;;12.71;100.00;102038.78;10500225;28;20450;-76
2022/07/27 04:45:34;;;;;;;0.40;0.35;;;;;;;12.85;100.00;102036.66;10486862;28;20443;-76
2022/07/27 04:50:40;;;;;;;0.08;0.05;;;;;;;13.08;100.00;102041.72;10500158;28;20048;-76
2022/07/27 04:55:44;;;;;;;0.00;0.00;;;;;;;13.13;100.00;102028.13;10500682;28;20036;-76
2022/07/27 05:00:45;;;;;;;0.00;0.00;;;;;;;13.14;100.00;102047.13;10493439;28;20071;-75
2022/07/27 05:05:47;;;;;;;0.57;0.47;;;;;;;13.22;100.00;102045.66;10493163;28;20039;-76
2022/07/27 05:10:50;;;;;;;2.60;0.10;;;;;;;13.31;100.00;102048.56;10493635;28;20553;-75
2022/07/27 05:15:52;;;;;;;0.00;0.00;;;;;;;13.36;100.00;102065.97;10501404;28;20059;-76
2022/07/27 05:20:56;;;;;;;0.25;0.25;;;;;;;13.25;100.00;102079.41;10494358;28;20131;-76
2022/07/27 05:25:57;;;;;;;0.45;0.22;;;;;;;13.37;100.00;102073.78;10494962;28;20090;-75
2022/07/27 05:30:59;;;;;;;0.35;0.20;;;;;;;13.51;100.00;102079.44;10487748;28;20044;-76
2022/07/27 05:36:01;;;;;;;0.63;0.20;;;;;;;13.64;100.00;102085.88;10478597;28;20052;-76
2022/07/27 05:41:08;;;;;;;0.00;0.00;;;;;;;13.58;100.00;102089.16;10485001;28;20071;-76
2022/07/27 05:46:10;;;;;;;0.10;0.10;;;;;;;13.72;100.00;102080.97;10498049;28;20052;-76
2022/07/27 05:51:12;;;;;;;1.98;0.80;;;;;;;13.97;100.00;102087.78;10487151;28;20476;-77
2022/07/27 05:56:13;;;;;;;9.73;0.40;;;;;;;14.05;100.00;102093.19;10466082;28;20040;-76
2022/07/27 06:01:15;;;;;;;0.20;0.10;;;;;;;14.11;100.00;102096.00;10495596;28;20053;-76
2022/07/27 06:11:37;;;;;;;;;;;;;;;14.05;100.00;102080.22;10487435;28;20043;-76
2022/07/27 06:16:39;;;;;;;0.45;0.40;;;;;;;14.39;100.00;102084.72;10499532;28;19966;-76
2022/07/27 06:21:41;;;;;;;0.03;0.03;;;;;;;14.39;100.00;102092.50;10499327;28;20127;-76
2022/07/27 06:26:43;;;;;;;0.47;0.20;;;;;;;14.55;100.00;102088.66;10474147;28;20049;-77
2022/07/27 06:31:45;;;;;;;0.10;0.10;;;;;;;14.79;100.00;102082.38;10475599;28;20045;-75
2022/07/27 06:36:47;;;;;;;0.00;0.00;;;;;;;15.07;100.00;102077.97;10479353;28;20369;-76
2022/07/27 06:41:49;;;;;;;0.00;0.00;;;;;;;15.24;100.00;102062.81;10470951;28;20064;-80
2022/07/27 06:46:55;;;;;;;0.45;0.30;;;;;;;15.33;100.00;102055.25;10493000;28;20032;-79
2022/07/27 06:51:57;;;;;;;0.00;0.00;;;;;;;15.63;100.00;102051.66;10509423;28;20049;-78
2022/07/27 06:56:59;;;;;;;0.00;0.00;;;;;;;15.99;100.00;102036.84;10500399;28;20044;-78
2022/07/27 07:02:00;;;;;;;0.00;0.00;;;;;;;16.21;100.00;102047.72;10530574;28;20043;-78
2022/07/27 07:07:02;;;;;;;0.00;0.00;;;;;;;16.38;100.00;102035.94;10512628;28;20052;-79
2022/07/27 07:12:07;;;;;;;0.00;0.00;;;;;;;16.55;100.00;102033.66;10508709;28;20049;-79
2022/07/27 07:17:09;;;;;;;0.05;0.00;;;;;;;16.55;100.00;102043.19;10499457;28;20052;-79
2022/07/27 07:22:11;;;;;;;0.52;0.10;;;;;;;17.05;100.00;102038.06;10494934;28;20078;-79
2022/07/27 07:27:12;;;;;;;0.00;0.00;;;;;;;17.16;100.00;102038.25;10504707;28;20043;-76
2022/07/27 07:32:15;;;;;;;0.85;0.32;;;;;;;17.08;100.00;102045.06;10484766;28;20048;-77
2022/07/27 07:37:17;;;;;;;0.00;0.00;;;;;;;17.13;100.00;102039.09;10501056;28;20072;-78
2022/07/27 07:42:19;;;;;;;1.77;0.95;;;;;;;17.58;100.00;102036.31;10492385;28;20045;-78
2022/07/27 07:47:22;;;;;;;0.00;0.00;;;;;;;18.59;100.00;102041.09;10501816;28;20044;-76
2022/07/27 07:52:24;;;;;;;1.10;0.20;;;;;;;19.15;100.00;102028.59;10497417;28;20039;-76
2022/07/27 07:57:26;;;;;;;0.10;0.10;;;;;;;18.87;100.00;102033.56;10512812;28;20040;-77
2022/07/27 08:02:28;;;;;;;0.00;0.00;;;;;;;19.52;100.00;102025.38;10521871;28;20041;-77
2022/07/27 08:07:30;;;;;;;0.73;0.52;;;;;;;18.43;91.79;102036.59;10504214;28;20037;-77
2022/07/27 08:12:32;;;;;;;0.00;0.00;;;;;;;18.65;94.33;102043.75;10484904;28;20048;-76
2022/07/27 08:17:34;;;;;;;0.10;0.10;;;;;;;19.07;89.05;102041.56;10504207;28;20041;-78
2022/07/27 08:22:36;;;;;;;0.05;0.03;;;;;;;20.55;84.79;102033.72;10502654;28;20052;-78
2022/07/27 08:27:38;;;;;;;0.55;0.30;;;;;;;20.16;82.76;102037.09;10500895;28;20052;-77
2022/07/27 08:33:01;;;;;;;0.10;0.00;;;;;;;20.53;82.19;102029.34;10499531;28;20052;-77
2022/07/27 08:38:06;;;;;;;0.05;0.00;;;;;;;18.81;97.61;102046.53;10502029;28;20059;-78
2022/07/27 08:43:08;;;;;;;0.22;0.15;;;;;;;18.15;94.98;102049.25;10496679;28;20048;-77
2022/07/27 08:48:14;;;;;;;0.00;0.00;;;;;;;18.25;98.00;102045.94;10480248;28;20100;-77
2022/07/27 08:53:17;;;;;;;0.08;0.08;;;;;;;17.48;96.82;102047.44;10503585;28;20385;-77
2022/07/27 08:58:43;;;;;;;0.00;0.00;;;;;;;20.00;88.87;102033.50;10492843;28;20048;-77
2022/07/27 09:03:45;;;;;;;0.00;0.00;;;;;;;20.63;80.25;102035.47;10478679;28;20053;-77
2022/07/27 09:09:05;;;;;;;0.00;0.00;;;;;;;19.26;78.50;102040.00;10476959;28;20040;-77
2022/07/27 09:14:56;;;;;;;0.03;0.00;;;;;;;18.49;82.56;102049.69;10485679;28;20039;-77
2022/07/27 09:20:04;;;;;;;1.48;0.20;;;;;;;20.88;80.50;102025.94;10484766;28;20045;-77
2022/07/27 09:25:08;;;;;;;0.10;0.10;;;;;;;20.43;71.16;102024.09;10461074;28;20040;-77
2022/07/27 09:30:12;;;;;;;0.00;0.00;;;;;;;20.22;72.29;102031.88;10494668;28;20040;-77
2022/07/27 09:35:33;;;;;;;0.00;0.00;;;;;;;19.23;79.55;102029.53;10495332;28;20041;-77
2022/07/27 09:40:34;;;;;;;0.00;0.00;;;;;;;20.22;81.55;102024.88;10491838;28;20120;-79
2022/07/27 09:45:38;;;;;;;0.00;0.00;;;;;;;21.47;71.11;102025.91;10495169;28;20075;-77
2022/07/27 09:51:00;;;;;;;3.40;0.30;;;;;;;21.58;65.88;102018.06;10466228;28;20511;-77
2022/07/27 09:56:27;;;;;;;0.22;0.20;;;;;;;19.97;73.56;102032.66;10493865;28;20050;-77
2022/07/27 10:01:33;;;;;;;0.00;0.00;;;;;;;19.39;75.72;102019.22;10476502;28;20040;-78
2022/07/27 10:06:35;;;;;;;6.70;0.17;;;;;;;19.12;77.62;102020.72;10496530;28;20040;-78
2022/07/27 10:11:57;;;;;;;0.10;0.10;;;;;;;18.83;82.24;102039.59;10511988;28;20056;-77
2022/07/27 10:17:00;;;;;;;0.40;0.40;;;;;;;19.01;78.97;102034.59;10475730;28;20064;-76
2022/07/27 10:22:02;;;;;;;0.00;0.00;;;;;;;21.47;84.00;102025.91;10499522;28;20048;-77
2022/07/27 10:33:59;;;;;;;;;;;;;;;20.64;63.84;102037.22;10484543;28;20438;-77
2022/07/27 10:39:04;;;;;;;0.00;0.00;;;;;;;19.76;72.40;102030.75;10476157;28;19928;-77
2022/07/27 10:44:21;;;;;;;0.30;0.05;;;;;;;19.08;70.71;102032.88;10499489;28;20052;-78
2022/07/27 10:49:29;;;;;;;0.00;0.00;;;;;;;18.94;71.94;102032.78;10498186;28;20045;-77
2022/07/27 10:54:33;;;;;;;0.00;0.00;;;;;;;19.23;84.04;102031.25;10494752;28;20124;-76
2022/07/27 10:59:38;;;;;;;0.00;0.00;;;;;;;19.48;79.20;102025.38;10467110;28;20063;-77
2022/07/27 11:18:53;;;;;;;0.00;0.00;;;;;;;20.23;70.49;102013.56;10489999;28;20032;-76
2022/07/27 11:24:10;;;;;;;0.00;0.00;;;;;;;20.79;68.38;102000.63;10484430;28;20127;-77
2022/07/27 11:29:15;;;;;;;0.98;0.20;;;;;;;20.57;59.94;102004.91;10470075;28;20395;-76
2022/07/27 11:34:18;;;;;;;0.00;0.00;;;;;;;21.55;53.70;101998.81;10498652;28;20399;-75
2022/07/27 11:39:24;;;;;;;0.00;0.00;;;;;;;22.71;63.00;101993.94;10497101;28;20053;-76
2022/07/27 11:44:45;;;;;;;0.00;0.00;;;;;;;22.22;47.00;101995.09;10481797;28;20373;-76
2022/07/27 11:49:47;;;;;;;0.47;0.08;;;;;;;22.89;59.29;101987.66;10508102;28;20047;-75
2022/07/27 11:54:51;;;;;;;0.00;0.00;;;;;;;21.12;62.09;101988.38;10498419;28;20132;-76
2022/07/27 11:59:52;;;;;;;0.10;0.10;;;;;;;20.69;65.02;101985.72;10490436;28;20099;-75
2022/07/27 12:04:54;;;;;;;0.52;0.32;;;;;;;20.78;62.31;101988.41;10521933;28;20402;-77
2022/07/27 12:10:05;;;;;;;0.13;0.00;;;;;;;22.41;56.01;101986.25;10540813;28;20047;-75
2022/07/27 12:15:16;;;;;;;0.00;0.00;;;;;;;21.62;48.41;101994.44;10546452;28;20044;-75
2022/07/27 12:20:37;;;;;;;0.05;0.05;;;;;;;21.28;48.07;101983.13;10545193;28;20105;-76
2022/07/27 12:25:40;;;;;;;0.20;0.00;;;;;;;21.55;44.22;101976.94;10541492;28;20039;-76
2022/07/27 12:30:50;;;;;;;0.77;0.20;;;;;;;21.87;51.12;101974.25;10505188;28;20431;-75
2022/07/27 12:35:52;;;;;;;0.03;0.03;;;;;;;21.89;47.91;101970.75;10504567;28;20056;-75
2022/07/27 12:40:54;;;;;;;1.85;0.10;;;;;;;22.26;46.11;101965.31;10504939;28;20402;-75
2022/07/27 12:46:12;;;;;;;0.38;0.10;;;;;;;22.32;45.37;101971.41;10529888;28;20044;-76
2022/07/27 12:51:22;;;;;;;0.00;0.00;;;;;;;22.56;51.05;101958.13;10544936;28;20115;-76
2022/07/27 12:56:24;;;;;;;0.20;0.10;;;;;;;21.97;46.03;101951.44;10541676;28;20044;-76
2022/07/27 13:01:28;;;;;;;1.45;0.28;;;;;;;22.08;50.45;101945.28;10544945;28;20098;-76
2022/07/27 13:06:30;;;;;;;0.00;0.00;;;;;;;22.14;45.42;101951.38;10544280;28;20039;-76
2022/07/27 13:11:31;;;;;;;0.32;0.20;;;;;;;21.18;51.54;101949.09;10541993;28;20052;-75
2022/07/27 13:16:33;;;;;;;1.95;0.20;;;;;;;20.83;55.88;101944.75;10514772;28;20115;-75
2022/07/27 13:21:35;;;;;;;0.00;0.00;;;;;;;20.95;60.90;101943.00;10472061;28;20055;-76
2022/07/27 13:26:38;;;;;;;0.55;0.25;;;;;;;20.27;64.69;101938.56;10502225;28;20037;-75
2022/07/27 13:31:40;;;;;;;0.00;0.00;;;;;;;20.56;65.63;101941.22;10467241;28;20048;-76
2022/07/27 13:36:51;;;;;;;0.00;0.00;;;;;;;20.63;67.14;101941.22;10463350;28;20047;-76
2022/07/27 13:41:54;;;;;;;0.00;0.00;;;;;;;20.87;66.40;101949.13;10500728;28;20518;-76
2022/07/27 13:46:56;;;;;;;0.10;0.10;;;;;;;20.74;69.49;101963.06;10500911;28;20048;-76
2022/07/27 13:51:58;;;;;;;0.00;0.00;;;;;;;20.47;61.42;101967.38;10509424;28;20047;-76
2022/07/27 13:56:59;;;;;;;0.15;0.15;;;;;;;21.47;61.27;101955.13;10520302;28;20041;-75
2022/07/27 14:02:01;;;;;;;0.00;0.00;;;;;;;21.06;61.09;101956.94;10493688;28;20044;-75
2022/07/27 14:07:05;;;;;;;0.00;0.00;;;;;;;20.90;63.14;101956.97;10493636;28;20083;-76
2022/07/27 14:12:07;;;;;;;3.08;0.45;;;;;;;20.82;66.51;101958.69;10498821;28;20055;-75
2022/07/27 14:17:45;;;;;;;0.00;0.00;;;;;;;20.55;64.17;101960.41;10503539;28;20048;-76
2022/07/27 14:22:46;;;;;;;0.13;0.10;;;;;;;20.72;66.99;101952.59;10490871;28;20032;-76
2022/07/27 14:27:48;;;;;;;0.00;0.00;;;;;;;20.67;65.36;101948.19;10527824;28;20040;-75
2022/07/27 14:39:49;;;;;;;0.00;0.00;;;;;;;20.37;70.93;101944.66;10457310;28;20068;-76
2022/07/27 14:44:51;;;;;;;0.00;0.00;;;;;;;20.17;68.35;101947.28;10495021;28;20419;-76
2022/07/27 14:49:53;;;;;;;0.10;0.05;;;;;;;20.61;73.57;101938.59;10497627;28;20046;-76
2022/07/27 15:01:53;;;;;;;;;;;;;;;21.00;65.69;101925.53;10457151;28;20029;-76
2022/07/27 15:06:56;;;;;;;0.28;0.20;;;;;;;20.83;56.22;101921.16;10450682;28;20380;-75
2022/07/27 15:12:00;;;;;;;0.52;0.40;;;;;;;20.97;59.90;101920.28;10451640;28;20055;-75
2022/07/27 15:17:02;;;;;;;0.20;0.20;;;;;;;21.00;61.39;101915.03;10449933;28;20049;-76
2022/07/27 15:22:04;;;;;;;0.00;0.00;;;;;;;21.33;60.43;101905.38;10436761;28;20062;-75
2022/07/27 15:27:06;;;;;;;0.20;0.10;;;;;;;21.09;62.31;101886.22;10510541;28;20037;-75
2022/07/27 15:32:08;;;;;;;0.10;0.10;;;;;;;20.50;55.61;101896.72;10493389;28;20052;-75
2022/07/27 15:37:10;;;;;;;0.00;0.00;;;;;;;20.80;57.61;101895.00;10498469;28;20044;-74
2022/07/27 15:42:12;;;;;;;0.08;0.08;;;;;;;20.59;60.37;101887.97;10503831;28;20063;-75
2022/07/27 15:47:14;;;;;;;0.00;0.00;;;;;;;20.64;63.12;101886.22;10509214;28;20044;-74
2022/07/27 15:52:15;;;;;;;0.05;0.03;;;;;;;20.58;63.75;101886.22;10502145;28;20067;-75
2022/07/27 15:57:17;;;;;;;5.00;0.38;;;;;;;19.94;65.45;101907.09;10504261;28;20075;-76
2022/07/27 16:02:19;;;;;;;0.90;0.13;;;;;;;19.76;66.80;101899.16;10503086;28;20048;-75
2022/07/27 16:07:25;;;;;;;0.00;0.00;;;;;;;19.88;68.62;101895.75;10503418;28;20114;-75
2022/07/27 16:12:32;;;;;;;0.08;0.08;;;;;;;19.67;71.71;101899.97;10506447;28;20059;-74
2022/07/27 16:17:38;;;;;;;0.10;0.00;;;;;;;19.89;71.68;101885.28;10510012;28;20037;-75
2022/07/27 16:22:40;;;;;;;0.00;0.00;;;;;;;20.36;71.16;101885.38;10514134;28;20043;-74
2022/07/27 16:27:42;;;;;;;0.22;0.00;;;;;;;20.19;65.56;101878.38;10508423;28;20044;-74
2022/07/27 16:32:43;;;;;;;0.00;0.00;;;;;;;20.10;64.46;101878.34;10483102;28;20041;-78
2022/07/27 16:37:45;;;;;;;0.00;0.00;;;;;;;20.41;65.54;101870.53;10495551;28;20043;-77
2022/07/27 16:42:47;;;;;;;0.08;0.08;;;;;;;20.70;70.83;101874.88;10486817;28;20403;-77
2022/07/27 16:47:48;;;;;;;0.08;0.08;;;;;;;20.60;63.70;101880.13;10470673;28;20044;-77
2022/07/27 16:52:50;;;;;;;0.32;0.20;;;;;;;20.57;60.98;101882.75;10493663;28;20052;-78
2022/07/27 16:57:52;;;;;;;0.10;0.10;;;;;;;20.50;61.67;101878.41;10488901;28;20499;-77
2022/07/27 17:02:54;;;;;;;0.30;0.10;;;;;;;20.55;66.82;101865.31;10494507;28;20123;-78
2022/07/27 17:07:55;;;;;;;0.00;0.00;;;;;;;20.59;63.29;101870.53;10487447;28;20056;-77
2022/07/27 17:12:57;;;;;;;0.00;0.00;;;;;;;20.75;62.24;101878.41;10487246;28;20044;-77
2022/07/27 17:17:59;;;;;;;0.30;0.10;;;;;;;20.71;61.92;101876.63;10494163;28;20036;-77
2022/07/27 17:23:02;;;;;;;1.55;0.10;;;;;;;20.52;60.09;101881.88;10488304;28;20048;-78
2022/07/27 17:28:04;;;;;;;0.10;0.10;;;;;;;20.49;64.90;101881.00;10493873;28;20068;-77
2022/07/27 17:33:05;;;;;;;0.00;0.00;;;;;;;20.44;66.10;101879.25;10488211;28;20385;-77
2022/07/27 17:38:07;;;;;;;0.00;0.00;;;;;;;20.33;58.04;101890.59;10492911;28;20060;-78
2022/07/27 17:43:09;;;;;;;0.03;0.03;;;;;;;20.48;60.45;101889.75;10484625;28;20102;-77
2022/07/27 17:48:10;;;;;;;0.00;0.00;;;;;;;20.49;60.85;101889.72;10447415;28;20040;-77
2022/07/27 17:53:12;;;;;;;0.10;0.10;;;;;;;20.07;61.72;101894.03;10491894;28;20396;-78
2022/07/27 17:58:13;;;;;;;0.00;0.00;;;;;;;19.84;62.21;101897.47;10486653;28;20052;-77
2022/07/27 18:03:16;;;;;;;0.10;0.10;;;;;;;19.75;66.07;101897.41;10488447;28;20068;-77
2022/07/27 18:08:18;;;;;;;0.00;0.00;;;;;;;19.60;65.25;101896.50;10480813;28;20043;-76
2022/07/27 18:13:19;;;;;;;0.20;0.00;;;;;;;19.40;66.51;101895.53;10469715;28;20048;-76
2022/07/27 18:18:26;;;;;;;0.00;0.00;;;;;;;19.16;66.79;101894.53;10502387;28;20040;-77
2022/07/27 18:23:29;;;;;;;0.00;0.00;;;;;;;19.08;69.70;101898.81;10493328;28;20052;-77
2022/07/27 18:28:32;;;;;;;0.00;0.00;;;;;;;18.95;71.73;101896.09;10492935;28;20037;-78
2022/07/27 18:33:44;;;;;;;0.00;0.00;;;;;;;18.64;71.41;101897.59;10481888;28;20394;-77
2022/07/27 18:38:48;;;;;;;0.10;0.10;;;;;;;18.59;73.93;101892.31;10480096;28;20064;-77
2022/07/27 18:43:50;;;;;;;0.00;0.00;;;;;;;18.20;74.23;101901.56;10489096;28;20051;-77
2022/07/27 18:48:52;;;;;;;1.35;0.45;;;;;;;18.14;73.77;101909.28;10490364;28;20131;-77
2022/07/27 18:53:54;;;;;;;0.00;0.00;;;;;;;17.93;75.78;101910.78;10463860;28;20509;-77
2022/07/27 18:58:55;;;;;;;0.30;0.10;;;;;;;17.74;75.58;101912.28;10455043;28;20049;-77
2022/07/27 19:03:57;;;;;;;0.10;0.05;;;;;;;17.54;76.72;101920.75;10479199;28;20480;-76
2022/07/27 19:08:59;;;;;;;0.25;0.13;;;;;;;17.47;79.30;101921.50;10462379;28;20047;-76
2022/07/27 19:14:00;;;;;;;0.00;0.00;;;;;;;17.16;81.36;101928.03;10484206;28;20080;-76
2022/07/27 19:19:03;;;;;;;0.00;0.00;;;;;;;16.95;83.98;101925.09;10486347;28;20484;-77
2022/07/27 19:24:04;;;;;;;0.35;0.35;;;;;;;16.77;84.48;101925.66;10484943;28;20054;-76
2022/07/27 19:29:08;;;;;;;0.00;0.00;;;;;;;16.65;86.04;101936.72;10493348;28;20090;-77
2022/07/27 19:34:10;;;;;;;0.00;0.00;;;;;;;16.56;90.84;101946.97;10484954;28;20052;-77
2022/07/27 19:39:12;;;;;;;0.00;0.00;;;;;;;16.23;92.20;101957.63;10486887;28;20032;-77
2022/07/27 19:44:14;;;;;;;0.20;0.20;;;;;;;16.22;93.97;101956.75;10491584;28;20057;-76
2022/07/27 19:49:22;;;;;;;0.00;0.00;;;;;;;15.98;94.31;101964.91;10494579;28;20123;-77
2022/07/27 19:54:27;;;;;;;0.22;0.22;;;;;;;15.93;95.68;101963.97;10515346;28;20048;-77
2022/07/27 19:59:28;;;;;;;0.30;0.30;;;;;;;15.88;95.98;101965.59;10482377;28;20033;-77
2022/07/27 20:04:50;;;;;;;0.30;0.20;;;;;;;15.68;97.71;101974.69;10479273;28;20044;-77
2022/07/27 20:09:52;;;;;;;0.10;0.05;;;;;;;15.66;99.73;101975.50;10479128;28;20048;-77
2022/07/27 20:14:53;;;;;;;0.05;0.05;;;;;;;15.64;98.26;101975.44;10480916;28;20385;-76
2022/07/27 20:19:55;;;;;;;0.00;0.00;;;;;;;15.52;98.42;101976.06;10462476;28;20095;-76
2022/07/27 20:24:57;;;;;;;0.00;0.00;;;;;;;15.44;98.56;101981.91;10483294;28;20052;-76
2022/07/27 20:29:58;;;;;;;0.25;0.22;;;;;;;15.28;100.00;101984.16;10489130;28;20499;-76
2022/07/27 20:35:00;;;;;;;0.00;0.00;;;;;;;15.27;100.00;101984.97;10490346;28;20550;-77
2022/07/27 20:40:04;;;;;;;0.00;0.00;;;;;;;15.13;100.00;101981.19;10474061;28;20276;-77
2022/07/27 20:45:08;;;;;;;0.10;0.10;;;;;;;15.04;100.00;101989.63;10489233;28;20059;-76
2022/07/27 20:50:12;;;;;;;0.03;0.00;;;;;;;14.93;100.00;102004.94;10487943;28;20052;-77
2022/07/27 20:55:14;;;;;;;0.00;0.00;;;;;;;14.87;100.00;102003.03;10492464;28;20033;-77
2022/07/27 21:00:18;;;;;;;0.10;0.03;;;;;;;14.88;100.00;102009.13;10497156;28;20048;-76
2022/07/27 21:05:20;;;;;;;1.20;0.17;;;;;;;14.79;100.00;102003.69;10492471;28;20052;-77
2022/07/27 21:10:22;;;;;;;0.45;0.38;;;;;;;14.68;100.00;102001.69;10493077;28;20036;-77
2022/07/27 21:15:24;;;;;;;0.00;0.00;;;;;;;14.61;100.00;102010.13;10493559;28;20056;-76
2022/07/27 21:20:34;;;;;;;0.80;0.10;;;;;;;14.73;100.00;102012.19;10490451;28;20051;-76
2022/07/27 21:25:38;;;;;;;0.20;0.10;;;;;;;14.52;100.00;102005.56;10493658;28;20503;-77
2022/07/27 21:30:40;;;;;;;0.00;0.00;;;;;;;14.33;100.00;102018.88;10493866;28;20079;-77
2022/07/27 21:35:42;;;;;;;0.00;0.00;;;;;;;14.36;100.00;102027.59;10485617;28;20052;-77
2022/07/27 21:40:43;;;;;;;0.00;0.00;;;;;;;14.16;100.00;102024.44;10492060;28;20427;-77
2022/07/27 21:45:45;;;;;;;0.00;0.00;;;;;;;14.23;100.00;102028.06;10494624;28;20400;-76
2022/07/27 21:50:50;;;;;;;0.00;0.00;;;;;;;13.95;100.00;102022.09;10485127;28;20040;-77
2022/07/27 21:55:51;;;;;;;0.00;0.00;;;;;;;13.59;100.00;102028.75;10494902;28;20056;-76
2022/07/27 22:00:53;;;;;;;0.00;0.00;;;;;;;13.45;100.00;102036.09;10483090;28;20139;-77
2022/07/27 22:05:55;;;;;;;0.00;0.00;;;;;;;13.57;100.00;102032.13;10467551;28;20101;-76
2022/07/27 22:10:56;;;;;;;0.00;0.00;;;;;;;13.33;100.00;102033.06;10487013;28;20097;-76
2022/07/27 22:15:58;;;;;;;0.00;0.00;;;;;;;12.98;100.00;102038.84;10486522;28;20495;-77
2022/07/27 22:21:00;;;;;;;0.00;0.00;;;;;;;12.73;100.00;102042.31;10494048;28;20044;-76
2022/07/27 22:26:02;;;;;;;0.10;0.10;;;;;;;12.81;100.00;102034.78;10493315;28;20071;-76
2022/07/27 22:31:03;;;;;;;0.03;0.03;;;;;;;12.73;100.00;102031.06;10486797;28;20033;-76
2022/07/27 22:36:23;;;;;;;0.00;0.00;;;;;;;12.89;100.00;102042.81;10478488;28;20048;-77
2022/07/27 22:41:25;;;;;;;0.00;0.00;;;;;;;12.82;100.00;102045.19;10473111;28;20403;-77
2022/07/27 22:46:28;;;;;;;1.58;0.50;;;;;;;12.73;100.00;102041.41;10493155;28;20094;-77
2022/07/27 22:51:30;;;;;;;0.00;0.00;;;;;;;12.56;100.00;102044.25;10490441;28;20040;-76
2022/07/27 22:56:52;;;;;;;0.10;0.10;;;;;;;12.70;100.00;102040.47;10485331;28;20067;-77
2022/07/27 23:01:54;;;;;;;0.20;0.17;;;;;;;12.62;100.00;102039.31;10509802;28;20048;-77
2022/07/27 23:06:56;;;;;;;0.00;0.00;;;;;;;12.73;100.00;102042.31;10505592;28;20046;-77
2022/07/27 23:11:58;;;;;;;0.25;0.08;;;;;;;12.70;100.00;102044.75;10491574;28;20059;-76
2022/07/27 23:17:00;;;;;;;0.05;0.05;;;;;;;12.70;100.00;102052.53;10528153;28;20513;-77
2022/07/27 23:22:01;;;;;;;0.25;0.10;;;;;;;12.73;100.00;102052.63;10493623;28;20499;-77
2022/07/27 23:27:03;;;;;;;0.00;0.00;;;;;;;12.67;100.00;102049.81;10472106;28;20102;-76
2022/07/27 23:32:07;;;;;;;0.65;0.43;;;;;;;12.70;100.00;102043.03;10465899;28;20083;-77
2022/07/27 23:37:09;;;;;;;0.45;0.32;;;;;;;12.39;100.00;102041.06;10493459;28;20488;-76
2022/07/27 23:42:11;;;;;;;0.17;0.17;;;;;;;12.43;100.00;102042.97;10498016;28;20052;-77
2022/07/27 23:47:12;;;;;;;0.35;0.13;;;;;;;12.45;100.00;102040.41;10492101;28;20048;-77
2022/07/27 23:52:14;;;;;;;0.00;0.00;;;;;;;12.56;100.00;102039.09;10530112;28;20490;-76